Time;durP1;ratioP1;P1;durP2;ratioP2;P2;SDS_P1;SDS_P2;PMS_P1;PMS_P2;Temp;Humidity;BMP_temperature;BMP_pressure;BME280_temperature;BME280_humidity;BME280_pressure;Samples;Min_cycle;Max_cycle;Signal;HPM_P1;HPM_P2
2020/12/11 00:01:34;;;;;;;;;;;2.40;99.90;;;;;;5072450;28;19919;-71
2020/12/11 00:04:00;;;;;;;;;;;2.40;99.90;;;;;;5071724;28;20023;-70
2020/12/11 00:06:26;;;;;;;;;;;2.40;99.90;;;;;;5072596;28;19935;-70
2020/12/11 00:08:51;;;;;;;;;;;2.40;99.90;;;;;;5071331;28;20007;-69
2020/12/11 00:11:17;;;;;;;;;;;2.40;99.90;;;;;;5071157;28;20398;-70
2020/12/11 00:13:43;;;;;;;;;;;2.40;99.90;;;;;;5071512;28;19909;-70
2020/12/11 00:16:08;;;;;;;;;;;2.40;99.90;;;;;;5072306;28;19909;-70
2020/12/11 00:18:34;;;;;;;;;;;2.40;99.90;;;;;;5071361;28;19974;-69
2020/12/11 00:21:00;;;;;;;;;;;2.30;99.90;;;;;;5071566;28;19913;-69
2020/12/11 00:23:26;;;;;;;;;;;2.30;99.90;;;;;;5071405;28;19919;-70
2020/12/11 00:25:58;;;;;;;;;;;2.30;99.90;;;;;;5071677;28;19999;-71
2020/12/11 00:28:30;;;;;;;;;;;2.30;99.90;;;;;;5071162;28;20011;-71
2020/12/11 00:30:56;;;;;;;;;;;2.20;99.90;;;;;;5071336;28;19916;-71
2020/12/11 00:33:22;;;;;;;;;;;2.20;99.90;;;;;;5071837;28;20011;-71
2020/12/11 00:35:48;;;;;;;;;;;2.30;99.90;;;;;;5072122;28;20362;-70
2020/12/11 00:38:14;;;;;;;;;;;2.10;99.90;;;;;;5071628;28;19908;-70
2020/12/11 00:40:39;;;;;;;;;;;2.10;99.90;;;;;;5071597;28;19981;-71
2020/12/11 00:43:05;;;;;;;;;;;2.20;99.90;;;;;;5071405;28;19912;-71
2020/12/11 00:45:31;;;;;;;;;;;2.20;99.90;;;;;;5071569;28;19912;-71
2020/12/11 00:47:56;;;;;;;;;;;2.20;99.90;;;;;;5071413;28;19960;-70
2020/12/11 00:50:22;;;;;;;;;;;2.10;99.90;;;;;;5071535;28;19930;-70
2020/12/11 00:52:47;;;;;;;;;;;2.10;99.90;;;;;;5071568;28;19912;-71
2020/12/11 00:55:13;;;;;;;;;;;2.10;99.90;;;;;;5070582;28;20057;-70
2020/12/11 00:57:38;;;;;;;;;;;2.10;99.90;;;;;;5071290;28;20372;-71
2020/12/11 01:00:05;;;;;;;;;;;2.10;99.90;;;;;;5070667;28;19913;-71
2020/12/11 01:02:30;;;;;;;;;;;2.20;99.90;;;;;;5071755;28;19999;-70
2020/12/11 01:04:56;;;;;;;;;;;2.20;99.90;;;;;;5070684;28;20376;-70
2020/12/11 01:07:21;;;;;;;;;;;2.30;99.90;;;;;;5070624;28;20318;-70
2020/12/11 01:09:47;;;;;;;;;;;2.40;99.90;;;;;;5071114;28;19913;-70
2020/12/11 01:12:12;;;;;;;;;;;2.40;99.90;;;;;;5071008;28;19916;-71
2020/12/11 01:14:38;;;;;;;;;;;2.40;99.90;;;;;;5070960;28;19912;-72
2020/12/11 01:17:03;;;;;;;;;;;2.50;99.90;;;;;;5070666;28;19912;-70
2020/12/11 01:19:29;;;;;;;;;;;2.50;99.90;;;;;;5069966;28;19923;-69
2020/12/11 01:21:54;;;;;;;;;;;2.50;99.90;;;;;;5070900;28;19912;-71
2020/12/11 01:24:20;;;;;;;;;;;2.50;99.90;;;;;;5071004;28;20448;-71
2020/12/11 01:26:46;;;;;;;;;;;2.50;99.90;;;;;;5072248;28;20415;-70
2020/12/11 01:29:11;;;;;;;;;;;2.50;99.90;;;;;;5083497;22;19936;-73
2020/12/11 01:31:36;;;;;;;;;;;2.40;99.90;;;;;;5049305;28;20410;-73
2020/12/11 01:34:02;;;;;;;;;;;2.50;99.90;;;;;;5049221;28;19909;-72
2020/12/11 01:36:27;;;;;;;;;;;2.40;99.90;;;;;;5050262;28;19909;-74
2020/12/11 01:38:54;;;;;;;;;;;2.40;99.90;;;;;;5048942;28;19916;-74
2020/12/11 01:41:20;;;;;;;;;;;2.40;99.90;;;;;;5049067;28;20011;-74
2020/12/11 01:43:45;;;;;;;;;;;2.40;99.90;;;;;;5049174;28;20324;-74
2020/12/11 01:46:15;;;;;;;;;;;2.50;99.90;;;;;;5049320;28;20408;-73
2020/12/11 01:48:40;;;;;;;;;;;2.40;99.90;;;;;;5048924;28;19921;-73
2020/12/11 01:51:06;;;;;;;;;;;2.40;99.90;;;;;;5048692;28;19995;-74
2020/12/11 01:53:32;;;;;;;;;;;2.40;99.90;;;;;;5049070;28;20026;-74
2020/12/11 01:55:58;;;;;;;;;;;2.50;99.90;;;;;;5049678;28;19909;-73
2020/12/11 01:58:25;;;;;;;;;;;2.40;99.90;;;;;;5049058;28;19915;-72
2020/12/11 02:00:54;;;;;;;;;;;2.40;99.90;;;;;;5048280;28;19999;-74
2020/12/11 02:03:19;;;;;;;;;;;2.40;99.90;;;;;;5046118;28;19912;-72
2020/12/11 02:05:45;;;;;;;;;;;2.40;99.90;;;;;;5048193;28;19919;-73
2020/12/11 02:08:14;;;;;;;;;;;2.40;99.90;;;;;;5047333;28;19956;-72
2020/12/11 02:10:44;;;;;;;;;;;2.40;99.90;;;;;;5048447;28;19912;-74
2020/12/11 02:13:10;;;;;;;;;;;2.40;99.90;;;;;;5048521;28;19917;-73
2020/12/11 02:15:35;;;;;;;;;;;2.40;99.90;;;;;;5048042;28;19923;-70
2020/12/11 02:18:01;;;;;;;;;;;2.30;99.90;;;;;;5048466;28;19919;-73
2020/12/11 02:20:26;;;;;;;;;;;2.40;99.90;;;;;;5047717;28;19913;-74
2020/12/11 02:22:52;;;;;;;;;;;2.40;99.90;;;;;;5048416;28;20325;-74
2020/12/11 02:25:17;;;;;;;;;;;2.40;99.90;;;;;;5048228;28;20293;-74
2020/12/11 02:27:45;;;;;;;;;;;2.20;99.90;;;;;;5047753;28;20011;-72
2020/12/11 02:30:11;;;;;;;;;;;2.10;99.90;;;;;;5047298;28;20097;-72
2020/12/11 02:32:36;;;;;;;;;;;2.10;99.90;;;;;;5048809;28;19916;-74
2020/12/11 02:35:02;;;;;;;;;;;2.10;99.90;;;;;;5047636;28;20001;-74
2020/12/11 02:37:28;;;;;;;;;;;2.10;99.90;;;;;;5047900;28;19999;-74
2020/12/11 02:39:53;;;;;;;;;;;2.10;99.90;;;;;;5047207;28;20429;-72
2020/12/11 02:42:19;;;;;;;;;;;2.10;99.90;;;;;;5048497;28;19915;-74
2020/12/11 02:44:44;;;;;;;;;;;2.10;99.90;;;;;;5047714;28;19913;-74
2020/12/11 02:47:14;;;;;;;;;;;2.10;99.90;;;;;;5048070;28;20333;-73
2020/12/11 02:49:39;;;;;;;;;;;2.10;99.90;;;;;;5046686;28;19990;-75
2020/12/11 02:52:05;;;;;;;;;;;2.10;99.90;;;;;;5048007;28;19913;-74
2020/12/11 02:54:30;;;;;;;;;;;2.10;99.90;;;;;;5048395;28;19909;-74
2020/12/11 02:56:56;;;;;;;;;;;1.90;99.90;;;;;;5047965;28;20250;-73
2020/12/11 02:59:21;;;;;;;;;;;1.80;99.90;;;;;;5046813;28;19917;-75
2020/12/11 03:01:46;;;;;;;;;;;1.80;99.90;;;;;;5047170;28;20215;-75
2020/12/11 03:04:12;;;;;;;;;;;1.70;99.90;;;;;;5047535;28;19928;-75
2020/12/11 03:06:37;;;;;;;;;;;1.60;99.90;;;;;;5048119;28;20289;-73
2020/12/11 03:09:03;;;;;;;;;;;1.60;99.90;;;;;;5046612;28;20015;-75
2020/12/11 03:11:29;;;;;;;;;;;1.70;99.90;;;;;;5046881;28;19921;-74
2020/12/11 03:13:54;;;;;;;;;;;1.80;99.90;;;;;;5046546;28;20009;-75
2020/12/11 03:16:20;;;;;;;;;;;1.70;99.90;;;;;;5047922;28;19912;-74
2020/12/11 03:18:46;;;;;;;;;;;1.70;99.90;;;;;;5045560;28;19939;-75
2020/12/11 03:21:11;;;;;;;;;;;1.70;99.90;;;;;;5046674;28;19912;-74
2020/12/11 03:23:37;;;;;;;;;;;1.70;99.90;;;;;;5047458;28;19913;-75
2020/12/11 03:26:03;;;;;;;;;;;1.70;99.90;;;;;;5047492;28;19947;-75
2020/12/11 03:28:29;;;;;;;;;;;1.70;99.90;;;;;;5046908;28;19921;-75
2020/12/11 03:30:54;;;;;;;;;;;1.70;99.90;;;;;;5046702;28;20337;-75
2020/12/11 03:33:20;;;;;;;;;;;1.70;99.90;;;;;;5047588;28;19912;-74
2020/12/11 03:35:46;;;;;;;;;;;1.70;99.90;;;;;;5046989;28;19909;-73
2020/12/11 03:38:11;;;;;;;;;;;1.60;99.90;;;;;;5047242;28;19913;-72
2020/12/11 03:40:37;;;;;;;;;;;1.50;99.90;;;;;;5046746;28;19979;-73
2020/12/11 03:43:02;;;;;;;;;;;1.60;99.90;;;;;;5048093;28;20310;-74
2020/12/11 03:45:28;;;;;;;;;;;1.60;99.90;;;;;;5046729;28;19917;-72
2020/12/11 03:47:53;;;;;;;;;;;1.70;99.90;;;;;;5047175;28;19974;-72
2020/12/11 03:50:19;;;;;;;;;;;1.70;99.90;;;;;;5046317;28;19908;-73
2020/12/11 03:52:44;;;;;;;;;;;1.80;99.90;;;;;;5047147;28;20015;-75
2020/12/11 03:55:10;;;;;;;;;;;1.70;99.90;;;;;;5047124;28;19913;-72
2020/12/11 03:57:35;;;;;;;;;;;1.80;99.90;;;;;;5047521;28;19963;-76
2020/12/11 04:00:01;;;;;;;;;;;1.70;99.90;;;;;;5046328;28;19917;-73
2020/12/11 04:02:26;;;;;;;;;;;1.70;99.90;;;;;;5042738;28;19959;-72
2020/12/11 04:04:51;;;;;;;;;;;1.70;99.90;;;;;;5026998;28;19915;-72
2020/12/11 04:07:17;;;;;;;;;;;1.70;99.90;;;;;;5027064;28;19917;-73
2020/12/11 04:09:42;;;;;;;;;;;1.70;99.90;;;;;;5046952;28;20008;-75
2020/12/11 04:12:08;;;;;;;;;;;1.70;99.90;;;;;;5062862;28;19920;-74
2020/12/11 04:14:33;;;;;;;;;;;1.60;99.90;;;;;;5047912;28;20377;-74
2020/12/11 04:16:59;;;;;;;;;;;1.60;99.90;;;;;;5048424;28;19909;-74
2020/12/11 04:19:28;;;;;;;;;;;1.60;99.90;;;;;;5047921;28;19923;-74
2020/12/11 04:21:53;;;;;;;;;;;1.50;99.90;;;;;;5047628;28;19909;-74
2020/12/11 04:24:20;;;;;;;;;;;1.50;99.90;;;;;;5046911;28;19909;-74
2020/12/11 04:26:45;;;;;;;;;;;1.40;99.90;;;;;;5047065;28;19912;-74
2020/12/11 04:29:11;;;;;;;;;;;1.40;99.90;;;;;;5046077;28;19928;-74
2020/12/11 04:31:37;;;;;;;;;;;1.30;99.90;;;;;;5047734;28;20370;-74
2020/12/11 04:34:03;;;;;;;;;;;1.20;99.90;;;;;;5050334;28;19958;-74
2020/12/11 04:36:28;;;;;;;;;;;1.10;99.90;;;;;;5050966;28;19955;-74
2020/12/11 04:38:54;;;;;;;;;;;1.20;99.90;;;;;;5049895;28;20330;-74
2020/12/11 04:41:20;;;;;;;;;;;1.20;99.90;;;;;;5050114;28;19963;-74
2020/12/11 04:43:52;;;;;;;;;;;1.20;99.90;;;;;;5050182;28;20744;-74
2020/12/11 04:46:17;;;;;;;;;;;1.10;99.90;;;;;;5050609;28;20265;-74
2020/12/11 04:48:43;;;;;;;;;;;1.10;99.90;;;;;;5049611;28;19917;-74
2020/12/11 04:51:09;;;;;;;;;;;1.20;99.90;;;;;;5049311;28;19920;-74
2020/12/11 04:53:35;;;;;;;;;;;1.10;99.90;;;;;;5050057;28;19955;-74
2020/12/11 04:56:02;;;;;;;;;;;1.10;99.90;;;;;;5050637;28;19914;-74
2020/12/11 04:58:29;;;;;;;;;;;1.10;99.90;;;;;;5050214;28;20063;-74
2020/12/11 05:00:55;;;;;;;;;;;1.10;99.90;;;;;;5049471;28;19910;-74
2020/12/11 05:03:21;;;;;;;;;;;1.20;99.90;;;;;;5050446;28;19932;-74
2020/12/11 05:05:47;;;;;;;;;;;1.20;99.90;;;;;;5049840;28;19912;-74
2020/12/11 05:08:19;;;;;;;;;;;1.20;99.90;;;;;;5049070;28;19942;-74
2020/12/11 05:10:45;;;;;;;;;;;1.20;99.90;;;;;;5049904;28;19913;-74
2020/12/11 05:13:21;;;;;;;;;;;1.10;99.90;;;;;;5050209;28;20284;-74
2020/12/11 05:16:25;;;;;;;;;;;1.10;99.90;;;;;;5049538;28;19909;-74
2020/12/11 05:19:01;;;;;;;;;;;1.20;99.90;;;;;;5006761;28;19913;-74
2020/12/11 05:21:27;;;;;;;;;;;1.20;99.90;;;;;;5007437;28;20036;-74
2020/12/11 05:23:53;;;;;;;;;;;1.00;99.90;;;;;;5007439;28;20427;-74
2020/12/11 05:26:19;;;;;;;;;;;0.80;99.90;;;;;;5007571;28;19956;-74
2020/12/11 05:28:45;;;;;;;;;;;0.80;99.90;;;;;;5006330;28;19917;-74
2020/12/11 05:31:12;;;;;;;;;;;0.80;99.90;;;;;;4992929;28;20248;-74
2020/12/11 05:33:37;;;;;;;;;;;0.70;99.90;;;;;;4987643;28;19910;-74
2020/12/11 05:36:02;;;;;;;;;;;0.60;99.90;;;;;;4988023;28;20406;-74
2020/12/11 05:38:28;;;;;;;;;;;0.70;99.90;;;;;;4989682;28;19925;-74
2020/12/11 05:40:54;;;;;;;;;;;0.70;99.90;;;;;;5007080;28;20306;-74
2020/12/11 05:43:21;;;;;;;;;;;0.80;99.90;;;;;;5007621;28;19935;-74
2020/12/11 05:45:54;;;;;;;;;;;0.80;99.90;;;;;;5006761;28;19920;-74
2020/12/11 05:48:21;;;;;;;;;;;0.90;99.90;;;;;;5006614;28;20563;-74
2020/12/11 05:50:46;;;;;;;;;;;1.00;99.90;;;;;;5048033;28;19922;-74
2020/12/11 05:53:12;;;;;;;;;;;1.10;99.90;;;;;;5047641;28;19909;-74
2020/12/11 05:55:37;;;;;;;;;;;1.20;99.90;;;;;;5049340;28;20246;-74
2020/12/11 05:58:05;;;;;;;;;;;1.30;99.90;;;;;;5048896;28;20349;-74
2020/12/11 06:00:31;;;;;;;;;;;1.30;99.90;;;;;;5048521;28;20029;-76
2020/12/11 06:02:56;;;;;;;;;;;1.30;99.90;;;;;;5049506;28;19948;-74
2020/12/11 06:05:23;;;;;;;;;;;1.20;99.90;;;;;;5048625;28;20018;-74
2020/12/11 06:07:50;;;;;;;;;;;1.10;99.90;;;;;;5048752;28;20312;-74
2020/12/11 06:10:16;;;;;;;;;;;1.10;99.90;;;;;;5048848;28;19920;-74
2020/12/11 06:12:42;;;;;;;;;;;1.00;99.90;;;;;;5049673;28;19913;-74
2020/12/11 06:15:08;;;;;;;;;;;1.00;99.90;;;;;;5048667;28;20357;-74
2020/12/11 06:17:36;;;;;;;;;;;1.10;99.90;;;;;;5049005;28;19940;-74
2020/12/11 06:20:04;;;;;;;;;;;1.10;99.90;;;;;;5035840;28;20444;-73
2020/12/11 06:22:29;;;;;;;;;;;1.20;99.90;;;;;;5023839;28;19961;-74
2020/12/11 06:24:55;;;;;;;;;;;1.20;99.90;;;;;;5027176;28;19936;-74
2020/12/11 06:27:31;;;;;;;;;;;1.20;99.90;;;;;;5026725;28;19956;-74
2020/12/11 06:29:56;;;;;;;;;;;1.20;99.90;;;;;;5029402;28;19920;-74
2020/12/11 06:32:32;;;;;;;;;;;1.30;99.90;;;;;;5046206;28;19920;-74
2020/12/11 06:35:11;;;;;;;;;;;1.30;99.90;;;;;;5046534;28;20445;-74
2020/12/11 06:37:37;;;;;;;;;;;1.30;99.90;;;;;;5045123;28;19919;-74
2020/12/11 06:40:02;;;;;;;;;;;1.30;99.90;;;;;;5039897;28;20420;-73
2020/12/11 06:42:40;;;;;;;;;;;1.30;99.90;;;;;;5039415;28;19957;-73
2020/12/11 06:45:24;;;;;;;;;;;1.30;99.90;;;;;;5029875;28;20306;-72
2020/12/11 06:47:51;;;;;;;;;;;1.40;99.90;;;;;;5034660;28;19920;-73
2020/12/11 06:50:18;;;;;;;;;;;1.40;99.90;;;;;;5042111;28;19917;-73
2020/12/11 06:52:44;;;;;;;;;;;1.50;99.90;;;;;;5042502;28;20365;-72
2020/12/11 06:55:09;;;;;;;;;;;1.40;99.90;;;;;;5047918;28;19968;-72
2020/12/11 06:57:36;;;;;;;;;;;1.50;99.90;;;;;;5065782;28;19963;-72
2020/12/11 07:00:20;;;;;;;;;;;1.40;99.90;;;;;;5065341;28;20265;-72
2020/12/11 07:02:46;;;;;;;;;;;1.40;99.90;;;;;;5066532;28;20011;-73
2020/12/11 07:05:12;;;;;;;;;;;1.40;99.90;;;;;;5064499;28;20024;-73
2020/12/11 07:07:40;;;;;;;;;;;1.40;99.90;;;;;;5042830;28;19921;-73
2020/12/11 07:10:08;;;;;;;;;;;1.40;99.90;;;;;;5049948;28;20317;-73
2020/12/11 07:12:34;;;;;;;;;;;1.30;99.90;;;;;;5044867;28;19917;-73
2020/12/11 07:15:13;;;;;;;;;;;1.30;99.90;;;;;;5037190;28;20077;-73
2020/12/11 07:17:41;;;;;;;;;;;1.20;99.90;;;;;;5025699;28;19917;-73
2020/12/11 07:20:07;;;;;;;;;;;1.20;99.90;;;;;;5038411;28;19924;-73
2020/12/11 07:22:34;;;;;;;;;;;1.20;99.90;;;;;;5036179;28;19999;-73
2020/12/11 07:24:59;;;;;;;;;;;1.30;99.90;;;;;;5031229;28;20068;-73
2020/12/11 07:27:25;;;;;;;;;;;1.30;99.90;;;;;;5050808;28;20024;-73
2020/12/11 07:29:51;;;;;;;;;;;1.40;99.90;;;;;;5050945;28;20367;-73
2020/12/11 07:32:17;;;;;;;;;;;1.40;99.90;;;;;;5079632;23;20399;-71
2020/12/11 07:34:43;;;;;;;;;;;1.40;99.90;;;;;;5049803;28;20000;-71
2020/12/11 07:37:08;;;;;;;;;;;1.50;99.90;;;;;;5054382;28;20016;-72
2020/12/11 07:39:34;;;;;;;;;;;1.50;99.90;;;;;;5040400;28;19920;-70
2020/12/11 07:42:01;;;;;;;;;;;1.50;99.90;;;;;;5010151;28;19913;-71
2020/12/11 07:44:29;;;;;;;;;;;1.50;99.90;;;;;;5034261;28;19917;-70
2020/12/11 07:46:56;;;;;;;;;;;1.50;99.90;;;;;;5031712;28;19940;-72
2020/12/11 07:49:34;;;;;;;;;;;1.50;99.90;;;;;;5039187;28;20131;-71
2020/12/11 07:52:00;;;;;;;;;;;1.50;99.90;;;;;;5033514;28;20016;-70
2020/12/11 07:54:33;;;;;;;;;;;1.50;99.90;;;;;;5033970;28;19990;-72
2020/12/11 07:57:07;;;;;;;;;;;1.40;99.90;;;;;;5012451;28;20361;-72
2020/12/11 07:59:32;;;;;;;;;;;1.40;99.90;;;;;;5041937;28;19913;-70
2020/12/11 08:01:57;;;;;;;;;;;1.30;99.90;;;;;;5044665;28;19939;-73
2020/12/11 08:04:23;;;;;;;;;;;1.30;99.90;;;;;;5053998;28;19958;-71
2020/12/11 08:06:56;;;;;;;;;;;1.30;99.90;;;;;;5056288;28;19928;-70
2020/12/11 08:09:21;;;;;;;;;;;1.20;99.90;;;;;;5056889;28;19916;-72
2020/12/11 08:11:47;;;;;;;;;;;1.20;99.90;;;;;;5048936;28;20599;-72
2020/12/11 08:14:12;;;;;;;;;;;1.20;99.90;;;;;;5053603;28;19943;-70
2020/12/11 08:16:38;;;;;;;;;;;1.10;99.90;;;;;;5059780;28;20019;-71
2020/12/11 08:19:08;;;;;;;;;;;1.20;99.90;;;;;;5057950;28;20283;-71
2020/12/11 08:21:33;;;;;;;;;;;1.30;99.90;;;;;;5057278;28;19921;-69
2020/12/11 08:23:59;;;;;;;;;;;1.20;99.90;;;;;;5052351;28;19981;-72
2020/12/11 08:26:26;;;;;;;;;;;1.30;99.90;;;;;;5037344;28;19913;-70
2020/12/11 08:29:11;;;;;;;;;;;1.30;99.90;;;;;;5050425;28;19952;-71
2020/12/11 08:31:40;;;;;;;;;;;1.20;99.90;;;;;;5051264;28;20237;-72
2020/12/11 08:34:08;;;;;;;;;;;1.10;99.90;;;;;;5052564;28;20219;-71
2020/12/11 08:36:35;;;;;;;;;;;1.20;99.90;;;;;;5050116;28;19999;-72
2020/12/11 08:39:06;;;;;;;;;;;1.30;99.90;;;;;;5050359;28;19971;-70
2020/12/11 08:41:34;;;;;;;;;;;1.50;99.90;;;;;;5055603;28;19912;-72
2020/12/11 08:44:02;;;;;;;;;;;1.60;99.90;;;;;;5050914;28;19912;-71
2020/12/11 08:46:41;;;;;;;;;;;1.60;99.90;;;;;;5055588;28;20668;-70
2020/12/11 08:51:38;;;;;;;;;;;1.20;99.90;;;;;;5056293;28;19916;-71
2020/12/11 08:54:07;;;;;;;;;;;1.30;99.90;;;;;;5057586;28;19921;-71
2020/12/11 08:56:32;;;;;;;;;;;1.50;99.90;;;;;;5052054;28;19913;-70
2020/12/11 08:58:58;;;;;;;;;;;1.50;99.90;;;;;;5057435;28;19936;-69
2020/12/11 09:01:24;;;;;;;;;;;1.60;99.90;;;;;;5034983;28;20012;-71
2020/12/11 09:03:49;;;;;;;;;;;1.70;99.90;;;;;;5016619;28;20039;-71
2020/12/11 09:06:15;;;;;;;;;;;1.80;99.90;;;;;;5048296;28;19916;-72
2020/12/11 09:08:40;;;;;;;;;;;1.70;99.90;;;;;;5038311;28;20677;-71
2020/12/11 09:11:06;;;;;;;;;;;1.80;99.90;;;;;;5035498;28;20491;-70
2020/12/11 09:13:31;;;;;;;;;;;1.80;99.90;;;;;;5045591;28;19974;-71
2020/12/11 09:15:57;;;;;;;;;;;1.70;99.90;;;;;;5041358;28;19913;-71
2020/12/11 09:18:23;;;;;;;;;;;1.80;99.90;;;;;;5036704;28;19917;-70
2020/12/11 09:20:49;;;;;;;;;;;1.80;99.90;;;;;;5048042;28;19924;-71
2020/12/11 09:23:14;;;;;;;;;;;1.50;99.90;;;;;;5045238;28;20361;-72
2020/12/11 09:25:40;;;;;;;;;;;1.80;99.90;;;;;;5048567;28;19913;-72
2020/12/11 09:28:12;;;;;;;;;;;2.00;99.90;;;;;;5036396;28;19980;-70
2020/12/11 09:30:39;;;;;;;;;;;2.30;99.90;;;;;;5040423;28;19919;-72
2020/12/11 09:35:30;;;;;;;;;;;2.70;99.90;;;;;;5034096;28;19967;-71
2020/12/11 09:37:56;;;;;;;;;;;2.90;99.90;;;;;;5039518;28;19924;-72
2020/12/11 09:40:28;;;;;;;;;;;2.90;99.90;;;;;;5036254;28;19979;-70
2020/12/11 09:43:29;;;;;;;;;;;3.00;99.90;;;;;;5041524;28;19936;-72
2020/12/11 09:45:50;;;;;;;;;;;3.20;99.90;;;;;;5034532;28;20381;-71
2020/12/11 09:53:20;;;;;;;;;;;3.40;99.90;;;;;;5046154;28;20012;-71
2020/12/11 09:55:49;;;;;;;;;;;3.50;99.90;;;;;;5041842;28;20502;-71
2020/12/11 09:58:15;;;;;;;;;;;3.50;99.90;;;;;;5029737;28;19936;-72
2020/12/11 10:00:43;;;;;;;;;;;3.50;99.90;;;;;;5036402;28;20041;-72
2020/12/11 10:03:12;;;;;;;;;;;3.50;99.90;;;;;;5049450;28;19909;-72
2020/12/11 10:05:38;;;;;;;;;;;3.50;99.90;;;;;;5044790;28;19913;-71
2020/12/11 10:08:03;;;;;;;;;;;3.60;99.90;;;;;;5047458;28;19947;-71
2020/12/11 10:10:29;;;;;;;;;;;3.50;99.90;;;;;;5035818;28;19924;-72
2020/12/11 10:12:55;;;;;;;;;;;3.60;99.90;;;;;;5030615;28;19971;-70
2020/12/11 10:15:21;;;;;;;;;;;3.60;99.90;;;;;;5030851;28;19976;-72
2020/12/11 10:17:47;;;;;;;;;;;3.50;99.90;;;;;;5048921;28;19912;-71
2020/12/11 10:20:19;;;;;;;;;;;3.50;99.90;;;;;;5040949;28;20042;-72
2020/12/11 10:22:49;;;;;;;;;;;3.20;99.90;;;;;;5031603;28;19944;-71
2020/12/11 10:25:15;;;;;;;;;;;3.00;99.90;;;;;;5038441;28;20571;-73
2020/12/11 10:27:40;;;;;;;;;;;3.00;99.90;;;;;;5042639;28;20339;-70
2020/12/11 10:30:06;;;;;;;;;;;3.10;99.90;;;;;;5046439;28;19968;-70
2020/12/11 10:32:32;;;;;;;;;;;3.20;99.90;;;;;;5048259;28;19979;-73
2020/12/11 10:34:57;;;;;;;;;;;3.40;99.90;;;;;;5038768;28;20016;-72
2020/12/11 10:37:23;;;;;;;;;;;3.40;99.90;;;;;;5031553;28;19929;-70
2020/12/11 10:39:50;;;;;;;;;;;3.40;99.90;;;;;;5047875;28;19913;-72
2020/12/11 10:42:15;;;;;;;;;;;3.30;99.90;;;;;;5047542;28;20077;-71
2020/12/11 10:44:41;;;;;;;;;;;3.00;99.90;;;;;;5037117;28;20341;-70
2020/12/11 10:47:07;;;;;;;;;;;2.90;99.90;;;;;;5047753;28;19917;-70
2020/12/11 10:49:33;;;;;;;;;;;2.90;99.90;;;;;;5033646;28;19913;-70
2020/12/11 10:51:58;;;;;;;;;;;3.00;99.90;;;;;;5045559;28;19998;-72
2020/12/11 10:54:27;;;;;;;;;;;3.40;99.90;;;;;;5029275;28;20725;-72
2020/12/11 10:56:53;;;;;;;;;;;3.50;99.90;;;;;;5045994;28;19913;-72
2020/12/11 10:59:18;;;;;;;;;;;2.90;99.90;;;;;;5039551;28;19920;-72
2020/12/11 11:01:44;;;;;;;;;;;3.10;99.90;;;;;;5034191;28;20358;-72
2020/12/11 11:04:09;;;;;;;;;;;3.20;99.90;;;;;;5027669;28;20469;-72
2020/12/11 11:11:34;;;;;;;;;;;3.80;99.90;;;;;;5043386;28;19921;-71
2020/12/11 11:19:29;;;;;;;;;;;4.00;99.90;;;;;;5035893;28;19924;-71
2020/12/11 11:22:12;;;;;;;;;;;3.90;99.90;;;;;;5033228;28;19932;-75
2020/12/11 11:27:12;;;;;;;;;;;3.60;99.90;;;;;;5035833;28;19920;-72
2020/12/11 11:29:38;;;;;;;;;;;3.20;99.90;;;;;;5050745;28;19919;-69
2020/12/11 11:32:03;;;;;;;;;;;3.30;99.90;;;;;;5042006;28;20439;-72
2020/12/11 11:34:29;;;;;;;;;;;3.40;99.90;;;;;;5038364;28;19913;-71
2020/12/11 11:36:56;;;;;;;;;;;3.60;99.90;;;;;;5049958;28;19913;-71
2020/12/11 11:39:21;;;;;;;;;;;3.60;99.90;;;;;;5049326;28;20012;-72
2020/12/11 11:41:47;;;;;;;;;;;3.70;99.90;;;;;;5058051;28;19912;-70
2020/12/11 11:46:48;;;;;;;;;;;3.90;99.90;;;;;;5053964;28;19920;-71
2020/12/11 11:49:18;;;;;;;;;;;3.90;99.90;;;;;;5060011;28;19913;-72
2020/12/11 11:51:53;;;;;;;;;;;4.30;99.90;;;;;;5059420;28;20011;-71
2020/12/11 11:54:18;;;;;;;;;;;4.50;99.90;;;;;;5057574;28;19923;-73
2020/12/11 11:56:44;;;;;;;;;;;4.80;99.90;;;;;;5058890;28;19916;-70
2020/12/11 11:59:09;;;;;;;;;;;4.20;99.90;;;;;;5048615;28;19913;-71
2020/12/11 12:01:35;;;;;;;;;;;4.20;99.90;;;;;;5051646;28;19912;-79
2020/12/11 12:04:00;;;;;;;;;;;4.50;99.90;;;;;;5058817;28;19942;-79
2020/12/11 12:06:26;;;;;;;;;;;4.10;99.90;;;;;;5047410;28;19927;-77
2020/12/11 12:08:51;;;;;;;;;;;4.00;99.90;;;;;;5051379;28;19921;-80
2020/12/11 12:11:17;;;;;;;;;;;3.90;99.90;;;;;;5059121;28;19971;-81
2020/12/11 12:13:42;;;;;;;;;;;4.00;99.90;;;;;;5059752;28;19921;-81
2020/12/11 12:16:08;;;;;;;;;;;4.40;99.90;;;;;;5050591;28;19939;-80
2020/12/11 12:18:38;;;;;;;;;;;4.60;99.90;;;;;;5028596;28;20404;-77
2020/12/11 12:21:09;;;;;;;;;;;4.70;99.90;;;;;;5057738;28;19952;-76
2020/12/11 12:29:08;;;;;;;;;;;4.30;99.90;;;;;;5035681;28;19968;-77
2020/12/11 12:31:40;;;;;;;;;;;4.40;99.90;;;;;;5045640;28;19948;-80
2020/12/11 12:34:35;;;;;;;;;;;4.30;99.90;;;;;;5048616;28;19920;-79
2020/12/11 12:44:54;;;;;;;;;;;3.80;99.90;;;;;;5046065;28;19920;-80
2020/12/11 12:47:19;;;;;;;;;;;3.80;99.90;;;;;;5053669;28;19913;-80
2020/12/11 12:49:45;;;;;;;;;;;3.70;99.90;;;;;;5044426;28;19912;-79
2020/12/11 12:52:10;;;;;;;;;;;3.70;99.90;;;;;;5047869;28;20478;-79
2020/12/11 12:54:36;;;;;;;;;;;3.60;99.90;;;;;;5049155;28;19917;-80
2020/12/11 12:57:22;;;;;;;;;;;3.30;99.90;;;;;;5042054;28;19919;-80
2020/12/11 13:05:09;;;;;;;;;;;3.40;99.90;;;;;;5068339;28;19926;-79
2020/12/11 13:07:35;;;;;;;;;;;3.40;99.90;;;;;;5049704;28;20288;-80
2020/12/11 13:10:01;;;;;;;;;;;3.30;99.90;;;;;;5068513;28;19921;-79
2020/12/11 13:12:27;;;;;;;;;;;3.00;99.90;;;;;;5061750;28;19924;-82
2020/12/11 13:14:52;;;;;;;;;;;3.10;99.90;;;;;;5053323;28;20004;-80
2020/12/11 13:17:18;;;;;;;;;;;3.30;99.90;;;;;;5052308;28;19924;-81
2020/12/11 13:19:44;;;;;;;;;;;3.50;99.90;;;;;;5042403;28;19909;-71
2020/12/11 13:27:28;;;;;;;;;;;3.90;99.90;;;;;;5048521;28;19990;-72
2020/12/11 13:29:53;;;;;;;;;;;3.80;99.90;;;;;;5028738;28;19931;-71
2020/12/11 13:32:20;;;;;;;;;;;3.70;99.90;;;;;;5044613;28;19980;-73
2020/12/11 13:34:46;;;;;;;;;;;3.70;99.90;;;;;;5039135;28;20465;-73
2020/12/11 13:37:11;;;;;;;;;;;3.60;99.90;;;;;;5042351;28;20008;-73
2020/12/11 13:39:37;;;;;;;;;;;3.60;99.90;;;;;;5029256;28;19965;-72
2020/12/11 13:42:03;;;;;;;;;;;3.50;99.90;;;;;;5048155;28;19920;-72
2020/12/11 13:44:28;;;;;;;;;;;3.60;99.90;;;;;;5041444;28;19916;-72
2020/12/11 13:46:54;;;;;;;;;;;3.60;99.90;;;;;;5041544;28;19912;-73
2020/12/11 13:49:19;;;;;;;;;;;3.60;99.90;;;;;;5015103;28;19917;-71
2020/12/11 13:51:45;;;;;;;;;;;3.60;99.90;;;;;;5038580;28;19948;-72
2020/12/11 13:54:11;;;;;;;;;;;3.60;99.90;;;;;;5040954;28;19924;-72
2020/12/11 13:56:36;;;;;;;;;;;3.50;99.90;;;;;;5037958;28;19916;-72
2020/12/11 13:59:02;;;;;;;;;;;3.50;99.90;;;;;;5038136;28;19917;-72
2020/12/11 14:01:27;;;;;;;;;;;3.40;99.90;;;;;;5048339;28;19948;-71
2020/12/11 14:03:53;;;;;;;;;;;3.40;99.90;;;;;;5017130;28;19925;-72
2020/12/11 14:06:18;;;;;;;;;;;3.40;99.90;;;;;;5036798;28;20285;-71
2020/12/11 14:08:44;;;;;;;;;;;3.40;99.90;;;;;;5038923;28;19920;-71
2020/12/11 14:11:09;;;;;;;;;;;3.30;99.90;;;;;;5035176;28;19913;-72
2020/12/11 14:13:35;;;;;;;;;;;3.20;99.90;;;;;;5041848;28;19932;-71
2020/12/11 14:16:01;;;;;;;;;;;3.20;99.90;;;;;;5045845;28;19916;-73
2020/12/11 14:23:20;;;;;;;;;;;3.20;99.90;;;;;;5047349;28;19917;-72
2020/12/11 14:25:46;;;;;;;;;;;3.30;99.90;;;;;;5039394;28;19957;-71
2020/12/11 14:28:12;;;;;;;;;;;3.20;99.90;;;;;;5029477;28;19921;-71
2020/12/11 14:30:37;;;;;;;;;;;3.20;99.90;;;;;;5041569;28;20333;-71
2020/12/11 14:33:03;;;;;;;;;;;3.00;99.90;;;;;;5038017;28;19959;-72
2020/12/11 14:35:28;;;;;;;;;;;2.90;99.90;;;;;;5027649;28;19996;-73
2020/12/11 14:37:58;;;;;;;;;;;2.80;99.90;;;;;;5029423;28;19971;-72
2020/12/11 14:40:24;;;;;;;;;;;2.80;99.90;;;;;;5041206;28;19916;-73
2020/12/11 14:42:51;;;;;;;;;;;2.80;99.90;;;;;;5047022;28;19919;-72
2020/12/11 14:45:16;;;;;;;;;;;2.60;99.90;;;;;;5045609;28;20024;-72
2020/12/11 14:47:42;;;;;;;;;;;2.60;99.90;;;;;;5047194;28;20028;-71
2020/12/11 14:50:08;;;;;;;;;;;2.60;99.90;;;;;;5045315;28;19952;-71
2020/12/11 14:52:33;;;;;;;;;;;2.60;99.90;;;;;;5029811;28;19940;-71
2020/12/11 14:54:59;;;;;;;;;;;2.60;99.90;;;;;;5042696;28;20000;-72
2020/12/11 14:57:24;;;;;;;;;;;2.60;99.90;;;;;;5020966;28;19986;-72
2020/12/11 14:59:50;;;;;;;;;;;2.50;99.90;;;;;;5032596;28;20384;-71
2020/12/11 15:02:16;;;;;;;;;;;2.50;99.90;;;;;;5045373;28;19916;-73
2020/12/11 15:04:42;;;;;;;;;;;2.40;99.90;;;;;;5058822;28;19920;-72
2020/12/11 15:07:07;;;;;;;;;;;2.30;99.90;;;;;;5045195;28;20357;-72
2020/12/11 15:09:33;;;;;;;;;;;2.30;99.90;;;;;;5042797;28;20362;-72
2020/12/11 15:11:58;;;;;;;;;;;2.30;99.90;;;;;;5040675;28;19919;-72
2020/12/11 15:14:24;;;;;;;;;;;2.20;99.90;;;;;;5046699;28;19919;-71
2020/12/11 15:16:50;;;;;;;;;;;2.10;99.90;;;;;;5050038;28;19912;-71
2020/12/11 15:19:15;;;;;;;;;;;2.10;99.90;;;;;;5032713;28;19923;-72
2020/12/11 15:21:41;;;;;;;;;;;2.00;99.90;;;;;;5035260;28;19916;-73
2020/12/11 15:24:12;;;;;;;;;;;2.00;99.90;;;;;;5043627;28;19944;-71